sensor_id;sensor_type;location;lat;lon;timestamp;temperature;humidity
65291;SHT30;51893;59.754;10.110;2023-08-20T00:00:02;17.40;88.55
65291;SHT30;51893;59.754;10.110;2023-08-20T00:02:32;17.42;88.62
65291;SHT30;51893;59.754;10.110;2023-08-20T00:05:05;17.45;88.52
65291;SHT30;51893;59.754;10.110;2023-08-20T00:07:34;17.45;88.46
65291;SHT30;51893;59.754;10.110;2023-08-20T00:10:03;17.42;88.55
65291;SHT30;51893;59.754;10.110;2023-08-20T00:12:32;17.43;88.59
65291;SHT30;51893;59.754;10.110;2023-08-20T00:15:01;17.41;88.73
65291;SHT30;51893;59.754;10.110;2023-08-20T00:17:35;17.39;88.86
65291;SHT30;51893;59.754;10.110;2023-08-20T00:20:06;17.42;88.90
65291;SHT30;51893;59.754;10.110;2023-08-20T00:22:43;17.48;88.87
65291;SHT30;51893;59.754;10.110;2023-08-20T00:25:13;17.52;88.82
65291;SHT30;51893;59.754;10.110;2023-08-20T00:27:43;17.53;88.81
65291;SHT30;51893;59.754;10.110;2023-08-20T00:30:12;17.56;88.78
65291;SHT30;51893;59.754;10.110;2023-08-20T00:32:40;17.55;88.79
65291;SHT30;51893;59.754;10.110;2023-08-20T00:35:09;17.64;88.65
65291;SHT30;51893;59.754;10.110;2023-08-20T00:37:36;17.68;88.53
65291;SHT30;51893;59.754;10.110;2023-08-20T00:40:05;17.71;88.50
65291;SHT30;51893;59.754;10.110;2023-08-20T00:42:33;17.70;88.50
65291;SHT30;51893;59.754;10.110;2023-08-20T00:45:01;17.69;88.46
65291;SHT30;51893;59.754;10.110;2023-08-20T00:47:31;17.70;88.44
65291;SHT30;51893;59.754;10.110;2023-08-20T00:50:01;17.64;88.36
65291;SHT30;51893;59.754;10.110;2023-08-20T00:52:34;17.63;88.36
65291;SHT30;51893;59.754;10.110;2023-08-20T00:55:09;17.59;88.41
65291;SHT30;51893;59.754;10.110;2023-08-20T00:57:39;17.53;88.36
65291;SHT30;51893;59.754;10.110;2023-08-20T01:00:08;17.45;88.44
65291;SHT30;51893;59.754;10.110;2023-08-20T01:02:38;17.36;88.56
65291;SHT30;51893;59.754;10.110;2023-08-20T01:05:10;17.33;88.70
65291;SHT30;51893;59.754;10.110;2023-08-20T01:13:31;17.40;88.60
65291;SHT30;51893;59.754;10.110;2023-08-20T01:15:59;17.41;88.52
65291;SHT30;51893;59.754;10.110;2023-08-20T01:18:27;17.39;88.55
65291;SHT30;51893;59.754;10.110;2023-08-20T01:20:56;17.34;88.71
65291;SHT30;51893;59.754;10.110;2023-08-20T01:29:05;17.32;88.88
65291;SHT30;51893;59.754;10.110;2023-08-20T01:31:34;17.34;88.81
65291;SHT30;51893;59.754;10.110;2023-08-20T01:34:02;17.32;88.88
65291;SHT30;51893;59.754;10.110;2023-08-20T01:36:31;17.35;88.85
65291;SHT30;51893;59.754;10.110;2023-08-20T01:38:59;17.39;88.75
65291;SHT30;51893;59.754;10.110;2023-08-20T01:41:27;17.36;88.79
65291;SHT30;51893;59.754;10.110;2023-08-20T01:43:55;17.37;88.92
65291;SHT30;51893;59.754;10.110;2023-08-20T01:46:23;17.39;88.87
65291;SHT30;51893;59.754;10.110;2023-08-20T01:48:51;17.39;88.80
65291;SHT30;51893;59.754;10.110;2023-08-20T01:51:19;17.44;88.79
65291;SHT30;51893;59.754;10.110;2023-08-20T01:53:46;17.48;88.62
65291;SHT30;51893;59.754;10.110;2023-08-20T01:56:14;17.48;88.64
65291;SHT30;51893;59.754;10.110;2023-08-20T01:58:43;17.47;88.66
65291;SHT30;51893;59.754;10.110;2023-08-20T02:01:12;17.44;88.70
65291;SHT30;51893;59.754;10.110;2023-08-20T02:03:40;17.46;88.82
65291;SHT30;51893;59.754;10.110;2023-08-20T02:06:09;17.47;88.79
65291;SHT30;51893;59.754;10.110;2023-08-20T02:08:37;17.44;88.86
65291;SHT30;51893;59.754;10.110;2023-08-20T02:11:05;17.48;88.92
65291;SHT30;51893;59.754;10.110;2023-08-20T02:13:32;17.44;89.08
65291;SHT30;51893;59.754;10.110;2023-08-20T02:16:01;17.43;89.25
65291;SHT30;51893;59.754;10.110;2023-08-20T02:18:31;17.48;89.20
65291;SHT30;51893;59.754;10.110;2023-08-20T02:21:00;17.49;89.22
65291;SHT30;51893;59.754;10.110;2023-08-20T02:23:28;17.55;89.13
65291;SHT30;51893;59.754;10.110;2023-08-20T02:25:56;17.55;89.07
65291;SHT30;51893;59.754;10.110;2023-08-20T02:28:24;17.56;89.19
65291;SHT30;51893;59.754;10.110;2023-08-20T02:30:52;17.60;89.11
65291;SHT30;51893;59.754;10.110;2023-08-20T02:33:20;17.62;89.11
65291;SHT30;51893;59.754;10.110;2023-08-20T02:35:48;17.67;89.12
65291;SHT30;51893;59.754;10.110;2023-08-20T02:38:16;17.72;89.04
65291;SHT30;51893;59.754;10.110;2023-08-20T02:40:43;17.73;89.02
65291;SHT30;51893;59.754;10.110;2023-08-20T02:43:11;17.73;89.04
65291;SHT30;51893;59.754;10.110;2023-08-20T02:45:40;17.73;89.13
65291;SHT30;51893;59.754;10.110;2023-08-20T02:48:10;17.74;89.14
65291;SHT30;51893;59.754;10.110;2023-08-20T02:50:40;17.73;89.16
65291;SHT30;51893;59.754;10.110;2023-08-20T02:53:08;17.73;89.25
65291;SHT30;51893;59.754;10.110;2023-08-20T02:55:36;17.74;89.28
65291;SHT30;51893;59.754;10.110;2023-08-20T02:58:04;17.73;89.35
65291;SHT30;51893;59.754;10.110;2023-08-20T03:00:35;17.76;89.35
65291;SHT30;51893;59.754;10.110;2023-08-20T03:03:04;17.80;89.30
65291;SHT30;51893;59.754;10.110;2023-08-20T03:05:35;17.82;89.30
65291;SHT30;51893;59.754;10.110;2023-08-20T03:08:03;17.84;89.24
65291;SHT30;51893;59.754;10.110;2023-08-20T03:10:32;17.82;89.22
65291;SHT30;51893;59.754;10.110;2023-08-20T03:13:03;17.84;89.26
65291;SHT30;51893;59.754;10.110;2023-08-20T03:15:31;17.88;89.21
65291;SHT30;51893;59.754;10.110;2023-08-20T03:17:59;17.93;89.10
65291;SHT30;51893;59.754;10.110;2023-08-20T03:20:27;17.95;89.08
65291;SHT30;51893;59.754;10.110;2023-08-20T03:22:56;17.97;89.03
65291;SHT30;51893;59.754;10.110;2023-08-20T03:25:24;17.90;89.17
65291;SHT30;51893;59.754;10.110;2023-08-20T03:27:52;17.87;89.26
65291;SHT30;51893;59.754;10.110;2023-08-20T03:30:21;17.83;89.43
65291;SHT30;51893;59.754;10.110;2023-08-20T03:32:49;17.81;89.54
65291;SHT30;51893;59.754;10.110;2023-08-20T03:35:17;17.80;89.51
65291;SHT30;51893;59.754;10.110;2023-08-20T03:37:45;17.80;89.51
65291;SHT30;51893;59.754;10.110;2023-08-20T03:40:13;17.81;89.52
65291;SHT30;51893;59.754;10.110;2023-08-20T03:42:42;17.80;89.60
65291;SHT30;51893;59.754;10.110;2023-08-20T03:45:09;17.80;89.67
65291;SHT30;51893;59.754;10.110;2023-08-20T03:47:37;17.80;89.54
65291;SHT30;51893;59.754;10.110;2023-08-20T03:50:06;17.80;89.54
65291;SHT30;51893;59.754;10.110;2023-08-20T03:52:34;17.82;89.56
65291;SHT30;51893;59.754;10.110;2023-08-20T03:55:03;17.83;89.50
65291;SHT30;51893;59.754;10.110;2023-08-20T03:57:31;17.82;89.50
65291;SHT30;51893;59.754;10.110;2023-08-20T04:00:00;17.83;89.50
65291;SHT30;51893;59.754;10.110;2023-08-20T04:02:28;17.83;89.38
65291;SHT30;51893;59.754;10.110;2023-08-20T04:04:57;17.77;89.17
65291;SHT30;51893;59.754;10.110;2023-08-20T04:07:25;17.71;89.12
65291;SHT30;51893;59.754;10.110;2023-08-20T04:09:53;17.67;89.09
65291;SHT30;51893;59.754;10.110;2023-08-20T04:12:21;17.65;89.05
65291;SHT30;51893;59.754;10.110;2023-08-20T04:14:49;17.61;89.01
65291;SHT30;51893;59.754;10.110;2023-08-20T04:17:17;17.57;89.07
65291;SHT30;51893;59.754;10.110;2023-08-20T04:19:45;17.57;89.06
65291;SHT30;51893;59.754;10.110;2023-08-20T04:22:13;17.56;89.01
65291;SHT30;51893;59.754;10.110;2023-08-20T04:24:41;17.55;89.09
65291;SHT30;51893;59.754;10.110;2023-08-20T04:27:09;17.53;89.12
65291;SHT30;51893;59.754;10.110;2023-08-20T04:29:37;17.53;89.17
65291;SHT30;51893;59.754;10.110;2023-08-20T04:32:05;17.55;89.12
65291;SHT30;51893;59.754;10.110;2023-08-20T04:34:33;17.56;89.12
65291;SHT30;51893;59.754;10.110;2023-08-20T04:37:01;17.54;89.13
65291;SHT30;51893;59.754;10.110;2023-08-20T04:39:29;17.50;89.12
65291;SHT30;51893;59.754;10.110;2023-08-20T04:41:57;17.50;89.16
65291;SHT30;51893;59.754;10.110;2023-08-20T04:44:27;17.52;89.15
65291;SHT30;51893;59.754;10.110;2023-08-20T04:46:55;17.56;89.10
65291;SHT30;51893;59.754;10.110;2023-08-20T04:49:23;17.59;89.04
65291;SHT30;51893;59.754;10.110;2023-08-20T04:51:55;17.65;88.98
65291;SHT30;51893;59.754;10.110;2023-08-20T04:54:24;17.71;88.86
65291;SHT30;51893;59.754;10.110;2023-08-20T04:56:52;17.72;88.79
65291;SHT30;51893;59.754;10.110;2023-08-20T04:59:19;17.66;88.86
65291;SHT30;51893;59.754;10.110;2023-08-20T05:01:47;17.60;89.03
65291;SHT30;51893;59.754;10.110;2023-08-20T05:04:15;17.57;89.17
65291;SHT30;51893;59.754;10.110;2023-08-20T05:06:43;17.60;89.17
65291;SHT30;51893;59.754;10.110;2023-08-20T05:09:11;17.61;89.10
65291;SHT30;51893;59.754;10.110;2023-08-20T05:11:39;17.61;89.16
65291;SHT30;51893;59.754;10.110;2023-08-20T05:14:08;17.68;89.16
65291;SHT30;51893;59.754;10.110;2023-08-20T05:16:36;17.76;89.04
65291;SHT30;51893;59.754;10.110;2023-08-20T05:19:04;17.81;88.90
65291;SHT30;51893;59.754;10.110;2023-08-20T05:21:34;17.87;88.83
65291;SHT30;51893;59.754;10.110;2023-08-20T05:24:02;17.92;88.67
65291;SHT30;51893;59.754;10.110;2023-08-20T05:26:31;17.91;88.49
65291;SHT30;51893;59.754;10.110;2023-08-20T05:28:59;17.83;88.47
65291;SHT30;51893;59.754;10.110;2023-08-20T05:31:27;17.76;88.72
65291;SHT30;51893;59.754;10.110;2023-08-20T05:33:55;17.69;88.96
65291;SHT30;51893;59.754;10.110;2023-08-20T05:36:23;17.66;89.05
65291;SHT30;51893;59.754;10.110;2023-08-20T05:38:51;17.62;89.11
65291;SHT30;51893;59.754;10.110;2023-08-20T05:41:19;17.61;89.16
65291;SHT30;51893;59.754;10.110;2023-08-20T05:43:47;17.60;89.20
65291;SHT30;51893;59.754;10.110;2023-08-20T05:46:15;17.62;89.20
65291;SHT30;51893;59.754;10.110;2023-08-20T05:48:42;17.66;89.17
65291;SHT30;51893;59.754;10.110;2023-08-20T05:51:10;17.67;89.10
65291;SHT30;51893;59.754;10.110;2023-08-20T05:53:38;17.66;89.10
65291;SHT30;51893;59.754;10.110;2023-08-20T05:56:06;17.67;89.13
65291;SHT30;51893;59.754;10.110;2023-08-20T05:58:34;17.65;89.20
65291;SHT30;51893;59.754;10.110;2023-08-20T06:01:02;17.63;89.20
65291;SHT30;51893;59.754;10.110;2023-08-20T06:03:29;17.61;89.24
65291;SHT30;51893;59.754;10.110;2023-08-20T06:05:58;17.63;89.34
65291;SHT30;51893;59.754;10.110;2023-08-20T06:08:31;17.62;89.21
65291;SHT30;51893;59.754;10.110;2023-08-20T06:10:59;17.62;89.22
65291;SHT30;51893;59.754;10.110;2023-08-20T06:13:27;17.59;89.22
65291;SHT30;51893;59.754;10.110;2023-08-20T06:15:55;17.58;89.30
65291;SHT30;51893;59.754;10.110;2023-08-20T06:18:23;17.57;89.33
65291;SHT30;51893;59.754;10.110;2023-08-20T06:20:51;17.61;89.27
65291;SHT30;51893;59.754;10.110;2023-08-20T06:23:19;17.61;89.26
65291;SHT30;51893;59.754;10.110;2023-08-20T06:26:07;17.69;89.37
65291;SHT30;51893;59.754;10.110;2023-08-20T06:28:34;17.74;89.30
65291;SHT30;51893;59.754;10.110;2023-08-20T06:31:02;17.77;89.34
65291;SHT30;51893;59.754;10.110;2023-08-20T06:33:30;17.81;89.29
65291;SHT30;51893;59.754;10.110;2023-08-20T06:35:58;17.81;89.20
65291;SHT30;51893;59.754;10.110;2023-08-20T06:38:26;17.79;89.14
65291;SHT30;51893;59.754;10.110;2023-08-20T06:40:55;17.76;89.11
65291;SHT30;51893;59.754;10.110;2023-08-20T06:43:23;17.74;89.15
65291;SHT30;51893;59.754;10.110;2023-08-20T06:45:51;17.71;89.18
65291;SHT30;51893;59.754;10.110;2023-08-20T06:48:20;17.71;89.31
65291;SHT30;51893;59.754;10.110;2023-08-20T06:50:49;17.71;89.38
65291;SHT30;51893;59.754;10.110;2023-08-20T06:53:18;17.72;89.36
65291;SHT30;51893;59.754;10.110;2023-08-20T06:55:46;17.74;89.43
65291;SHT30;51893;59.754;10.110;2023-08-20T06:58:13;17.75;89.50
65291;SHT30;51893;59.754;10.110;2023-08-20T07:00:41;17.75;89.55
65291;SHT30;51893;59.754;10.110;2023-08-20T07:03:09;17.76;89.63
65291;SHT30;51893;59.754;10.110;2023-08-20T07:05:38;17.77;89.69
65291;SHT30;51893;59.754;10.110;2023-08-20T07:08:06;17.79;89.67
65291;SHT30;51893;59.754;10.110;2023-08-20T07:10:34;17.78;89.70
65291;SHT30;51893;59.754;10.110;2023-08-20T07:13:01;17.78;89.79
65291;SHT30;51893;59.754;10.110;2023-08-20T07:15:29;17.79;89.88
65291;SHT30;51893;59.754;10.110;2023-08-20T07:17:57;17.81;89.99
65291;SHT30;51893;59.754;10.110;2023-08-20T07:20:25;17.82;90.00
65291;SHT30;51893;59.754;10.110;2023-08-20T07:22:53;17.83;89.96
65291;SHT30;51893;59.754;10.110;2023-08-20T07:25:23;17.84;90.03
65291;SHT30;51893;59.754;10.110;2023-08-20T07:27:51;17.84;90.00
65291;SHT30;51893;59.754;10.110;2023-08-20T07:30:19;17.89;90.00
65291;SHT30;51893;59.754;10.110;2023-08-20T07:32:47;17.93;89.96
65291;SHT30;51893;59.754;10.110;2023-08-20T07:35:15;17.96;89.93
65291;SHT30;51893;59.754;10.110;2023-08-20T07:37:43;18.03;89.83
65291;SHT30;51893;59.754;10.110;2023-08-20T07:40:11;18.07;89.80
65291;SHT30;51893;59.754;10.110;2023-08-20T07:42:43;18.07;89.80
65291;SHT30;51893;59.754;10.110;2023-08-20T07:45:11;18.05;89.87
65291;SHT30;51893;59.754;10.110;2023-08-20T07:47:39;18.07;89.95
65291;SHT30;51893;59.754;10.110;2023-08-20T07:50:08;18.06;89.77
65291;SHT30;51893;59.754;10.110;2023-08-20T07:52:36;18.00;89.61
65291;SHT30;51893;59.754;10.110;2023-08-20T07:55:04;17.94;89.64
65291;SHT30;51893;59.754;10.110;2023-08-20T07:57:32;17.91;89.81
65291;SHT30;51893;59.754;10.110;2023-08-20T08:00:01;17.88;89.88
65291;SHT30;51893;59.754;10.110;2023-08-20T08:02:31;17.88;89.92
65291;SHT30;51893;59.754;10.110;2023-08-20T08:04:59;17.92;90.00
65291;SHT30;51893;59.754;10.110;2023-08-20T08:07:28;17.95;90.00
65291;SHT30;51893;59.754;10.110;2023-08-20T08:09:56;17.98;89.99
65291;SHT30;51893;59.754;10.110;2023-08-20T08:12:24;17.99;89.98
65291;SHT30;51893;59.754;10.110;2023-08-20T08:14:52;18.01;90.04
65291;SHT30;51893;59.754;10.110;2023-08-20T08:17:20;17.97;90.13
65291;SHT30;51893;59.754;10.110;2023-08-20T08:19:48;17.94;90.22
65291;SHT30;51893;59.754;10.110;2023-08-20T08:22:19;18.07;90.83
65291;SHT30;51893;59.754;10.110;2023-08-20T08:24:47;18.16;90.74
65291;SHT30;51893;59.754;10.110;2023-08-20T08:27:15;18.08;90.38
65291;SHT30;51893;59.754;10.110;2023-08-20T08:29:43;18.12;90.46
65291;SHT30;51893;59.754;10.110;2023-08-20T08:32:12;18.23;90.43
65291;SHT30;51893;59.754;10.110;2023-08-20T08:34:40;18.29;90.39
65291;SHT30;51893;59.754;10.110;2023-08-20T08:37:07;18.36;90.30
65291;SHT30;51893;59.754;10.110;2023-08-20T08:39:36;18.43;90.15
65291;SHT30;51893;59.754;10.110;2023-08-20T08:42:04;18.49;90.17
65291;SHT30;51893;59.754;10.110;2023-08-20T08:44:34;18.49;90.16
65291;SHT30;51893;59.754;10.110;2023-08-20T08:47:04;18.50;90.17
65291;SHT30;51893;59.754;10.110;2023-08-20T08:49:33;18.50;89.92
65291;SHT30;51893;59.754;10.110;2023-08-20T08:52:03;18.46;89.72
65291;SHT30;51893;59.754;10.110;2023-08-20T08:54:33;18.45;89.75
65291;SHT30;51893;59.754;10.110;2023-08-20T08:57:01;18.42;89.77
65291;SHT30;51893;59.754;10.110;2023-08-20T08:59:29;18.42;89.82
65291;SHT30;51893;59.754;10.110;2023-08-20T09:01:57;18.44;89.88
65291;SHT30;51893;59.754;10.110;2023-08-20T09:04:25;18.52;89.97
65291;SHT30;51893;59.754;10.110;2023-08-20T09:06:55;18.61;89.97
65291;SHT30;51893;59.754;10.110;2023-08-20T09:09:23;18.70;89.88
65291;SHT30;51893;59.754;10.110;2023-08-20T09:11:58;18.75;89.59
65291;SHT30;51893;59.754;10.110;2023-08-20T09:14:30;18.74;89.38
65291;SHT30;51893;59.754;10.110;2023-08-20T09:16:58;18.70;89.31
65291;SHT30;51893;59.754;10.110;2023-08-20T09:19:29;18.73;89.51
65291;SHT30;51893;59.754;10.110;2023-08-20T09:22:07;18.84;89.71
65291;SHT30;51893;59.754;10.110;2023-08-20T09:24:51;18.92;90.00
65291;SHT30;51893;59.754;10.110;2023-08-20T09:27:23;18.93;89.62
65291;SHT30;51893;59.754;10.110;2023-08-20T09:29:55;18.94;89.49
65291;SHT30;51893;59.754;10.110;2023-08-20T09:32:27;19.04;89.68
65291;SHT30;51893;59.754;10.110;2023-08-20T09:34:56;19.17;89.72
65291;SHT30;51893;59.754;10.110;2023-08-20T09:37:24;19.29;89.60
65291;SHT30;51893;59.754;10.110;2023-08-20T09:39:52;19.28;89.18
65291;SHT30;51893;59.754;10.110;2023-08-20T09:42:20;19.25;88.97
65291;SHT30;51893;59.754;10.110;2023-08-20T09:44:48;19.27;88.93
65291;SHT30;51893;59.754;10.110;2023-08-20T09:47:19;19.31;88.88
65291;SHT30;51893;59.754;10.110;2023-08-20T09:49:52;19.42;89.06
65291;SHT30;51893;59.754;10.110;2023-08-20T09:52:31;19.52;89.16
65291;SHT30;51893;59.754;10.110;2023-08-20T09:55:08;19.64;89.10
65291;SHT30;51893;59.754;10.110;2023-08-20T09:57:43;19.75;89.29
65291;SHT30;51893;59.754;10.110;2023-08-20T10:00:15;19.88;89.29
65291;SHT30;51893;59.754;10.110;2023-08-20T10:02:43;20.04;89.06
65291;SHT30;51893;59.754;10.110;2023-08-20T10:05:12;20.09;88.47
65291;SHT30;51893;59.754;10.110;2023-08-20T10:07:42;20.13;88.40
65291;SHT30;51893;59.754;10.110;2023-08-20T10:10:11;20.11;88.44
65291;SHT30;51893;59.754;10.110;2023-08-20T10:12:44;20.10;88.38
65291;SHT30;51893;59.754;10.110;2023-08-20T10:15:13;20.12;88.39
65291;SHT30;51893;59.754;10.110;2023-08-20T10:17:42;20.17;88.47
65291;SHT30;51893;59.754;10.110;2023-08-20T10:20:14;20.20;88.65
65291;SHT30;51893;59.754;10.110;2023-08-20T10:22:44;20.25;88.55
65291;SHT30;51893;59.754;10.110;2023-08-20T10:25:31;20.30;88.42
65291;SHT30;51893;59.754;10.110;2023-08-20T10:28:12;20.37;88.25
65291;SHT30;51893;59.754;10.110;2023-08-20T10:31:10;20.40;88.15
65291;SHT30;51893;59.754;10.110;2023-08-20T10:36:15;20.41;87.90
65291;SHT30;51893;59.754;10.110;2023-08-20T10:38:45;20.39;87.80
65291;SHT30;51893;59.754;10.110;2023-08-20T10:41:13;20.38;87.80
65291;SHT30;51893;59.754;10.110;2023-08-20T10:43:47;20.39;87.93
65291;SHT30;51893;59.754;10.110;2023-08-20T10:46:18;20.39;88.11
65291;SHT30;51893;59.754;10.110;2023-08-20T10:48:57;20.41;88.04
65291;SHT30;51893;59.754;10.110;2023-08-20T10:51:32;20.42;87.91
65291;SHT30;51893;59.754;10.110;2023-08-20T10:54:07;20.41;87.99
65291;SHT30;51893;59.754;10.110;2023-08-20T10:59:29;20.43;88.06
65291;SHT30;51893;59.754;10.110;2023-08-20T11:01:58;20.41;87.90
65291;SHT30;51893;59.754;10.110;2023-08-20T11:04:28;20.41;87.94
65291;SHT30;51893;59.754;10.110;2023-08-20T11:07:00;20.36;87.93
65291;SHT30;51893;59.754;10.110;2023-08-20T11:09:30;20.32;87.89
65291;SHT30;51893;59.754;10.110;2023-08-20T11:11:58;20.27;87.82
65291;SHT30;51893;59.754;10.110;2023-08-20T11:14:27;20.29;87.89
65291;SHT30;51893;59.754;10.110;2023-08-20T11:16:55;20.25;87.84
65291;SHT30;51893;59.754;10.110;2023-08-20T11:19:24;20.21;87.81
65291;SHT30;51893;59.754;10.110;2023-08-20T11:21:51;20.16;87.78
65291;SHT30;51893;59.754;10.110;2023-08-20T11:24:19;20.10;87.74
65291;SHT30;51893;59.754;10.110;2023-08-20T11:26:48;20.09;88.00
65291;SHT30;51893;59.754;10.110;2023-08-20T11:29:16;20.13;88.20
65291;SHT30;51893;59.754;10.110;2023-08-20T11:31:48;20.14;88.14
65291;SHT30;51893;59.754;10.110;2023-08-20T11:34:20;20.14;88.09
65291;SHT30;51893;59.754;10.110;2023-08-20T11:36:49;20.10;88.12
65291;SHT30;51893;59.754;10.110;2023-08-20T11:39:17;20.06;88.21
65291;SHT30;51893;59.754;10.110;2023-08-20T11:41:45;19.99;88.23
65291;SHT30;51893;59.754;10.110;2023-08-20T11:44:20;19.94;88.30
65291;SHT30;51893;59.754;10.110;2023-08-20T11:46:49;19.91;88.43
65291;SHT30;51893;59.754;10.110;2023-08-20T11:49:26;19.90;88.64
65291;SHT30;51893;59.754;10.110;2023-08-20T11:51:56;19.90;88.81
65291;SHT30;51893;59.754;10.110;2023-08-20T11:54:24;19.92;89.04
65291;SHT30;51893;59.754;10.110;2023-08-20T11:57:01;19.97;89.18
65291;SHT30;51893;59.754;10.110;2023-08-20T11:59:31;19.98;89.13
65291;SHT30;51893;59.754;10.110;2023-08-20T12:02:01;19.99;89.08
65291;SHT30;51893;59.754;10.110;2023-08-20T12:04:31;20.04;89.22
65291;SHT30;51893;59.754;10.110;2023-08-20T12:07:09;20.13;89.46
65291;SHT30;51893;59.754;10.110;2023-08-20T12:09:41;20.22;89.72
65291;SHT30;51893;59.754;10.110;2023-08-20T12:12:10;20.36;89.77
65291;SHT30;51893;59.754;10.110;2023-08-20T12:14:38;20.54;89.74
65291;SHT30;51893;59.754;10.110;2023-08-20T12:17:07;20.72;89.67
65291;SHT30;51893;59.754;10.110;2023-08-20T12:19:35;20.86;89.44
65291;SHT30;51893;59.754;10.110;2023-08-20T12:22:03;21.08;89.29
65291;SHT30;51893;59.754;10.110;2023-08-20T12:24:31;21.40;89.43
65291;SHT30;51893;59.754;10.110;2023-08-20T12:26:59;21.72;89.21
65291;SHT30;51893;59.754;10.110;2023-08-20T12:29:27;21.85;87.70
65291;SHT30;51893;59.754;10.110;2023-08-20T12:31:56;21.91;86.91
65291;SHT30;51893;59.754;10.110;2023-08-20T12:34:24;21.90;86.74
65291;SHT30;51893;59.754;10.110;2023-08-20T12:36:53;21.79;86.19
65291;SHT30;51893;59.754;10.110;2023-08-20T12:39:21;21.64;86.02
65291;SHT30;51893;59.754;10.110;2023-08-20T12:41:48;21.56;86.24
65291;SHT30;51893;59.754;10.110;2023-08-20T12:44:17;21.52;86.12
65291;SHT30;51893;59.754;10.110;2023-08-20T12:46:47;21.41;85.75
65291;SHT30;51893;59.754;10.110;2023-08-20T12:49:15;21.38;85.62
65291;SHT30;51893;59.754;10.110;2023-08-20T12:51:43;21.42;85.50
65291;SHT30;51893;59.754;10.110;2023-08-20T12:54:11;21.43;85.36
65291;SHT30;51893;59.754;10.110;2023-08-20T12:56:39;21.40;84.95
65291;SHT30;51893;59.754;10.110;2023-08-20T12:59:07;21.40;84.89
65291;SHT30;51893;59.754;10.110;2023-08-20T13:01:36;21.41;84.73
65291;SHT30;51893;59.754;10.110;2023-08-20T13:04:04;21.51;85.05
65291;SHT30;51893;59.754;10.110;2023-08-20T13:06:33;21.66;84.84
65291;SHT30;51893;59.754;10.110;2023-08-20T13:09:01;21.90;84.90
65291;SHT30;51893;59.754;10.110;2023-08-20T13:11:30;22.01;84.38
65291;SHT30;51893;59.754;10.110;2023-08-20T13:13:59;22.17;84.44
65291;SHT30;51893;59.754;10.110;2023-08-20T13:16:28;22.37;83.89
65291;SHT30;51893;59.754;10.110;2023-08-20T13:18:56;22.58;83.27
65291;SHT30;51893;59.754;10.110;2023-08-20T13:21:25;22.78;82.72
65291;SHT30;51893;59.754;10.110;2023-08-20T13:23:52;22.93;82.00
65291;SHT30;51893;59.754;10.110;2023-08-20T13:26:20;23.11;81.63
65291;SHT30;51893;59.754;10.110;2023-08-20T13:28:50;23.22;81.07
65291;SHT30;51893;59.754;10.110;2023-08-20T13:31:18;23.31;81.08
65291;SHT30;51893;59.754;10.110;2023-08-20T13:33:46;23.35;80.53
65291;SHT30;51893;59.754;10.110;2023-08-20T13:36:14;23.38;80.33
65291;SHT30;51893;59.754;10.110;2023-08-20T13:38:41;23.33;79.90
65291;SHT30;51893;59.754;10.110;2023-08-20T13:41:10;23.15;79.74
65291;SHT30;51893;59.754;10.110;2023-08-20T13:43:38;22.91;79.84
65291;SHT30;51893;59.754;10.110;2023-08-20T13:46:06;22.70;80.00
65291;SHT30;51893;59.754;10.110;2023-08-20T13:48:34;22.58;79.95
65291;SHT30;51893;59.754;10.110;2023-08-20T13:51:02;22.44;80.17
65291;SHT30;51893;59.754;10.110;2023-08-20T13:53:30;22.28;80.32
65291;SHT30;51893;59.754;10.110;2023-08-20T13:55:57;22.17;80.42
65291;SHT30;51893;59.754;10.110;2023-08-20T13:58:25;22.04;80.52
65291;SHT30;51893;59.754;10.110;2023-08-20T14:00:53;21.92;80.59
65291;SHT30;51893;59.754;10.110;2023-08-20T14:03:21;21.84;80.69
65291;SHT30;51893;59.754;10.110;2023-08-20T14:05:49;21.76;80.84
65291;SHT30;51893;59.754;10.110;2023-08-20T14:08:17;21.68;81.10
65291;SHT30;51893;59.754;10.110;2023-08-20T14:10:45;21.53;80.92
65291;SHT30;51893;59.754;10.110;2023-08-20T14:13:14;21.39;80.94
65291;SHT30;51893;59.754;10.110;2023-08-20T14:15:42;21.35;81.21
65291;SHT30;51893;59.754;10.110;2023-08-20T14:18:10;21.30;81.33
65291;SHT30;51893;59.754;10.110;2023-08-20T14:20:38;21.26;81.61
65291;SHT30;51893;59.754;10.110;2023-08-20T14:23:05;21.21;81.66
65291;SHT30;51893;59.754;10.110;2023-08-20T14:25:33;21.23;81.63
65291;SHT30;51893;59.754;10.110;2023-08-20T14:28:01;21.25;81.75
65291;SHT30;51893;59.754;10.110;2023-08-20T14:30:29;21.27;81.85
65291;SHT30;51893;59.754;10.110;2023-08-20T14:32:57;21.25;81.73
65291;SHT30;51893;59.754;10.110;2023-08-20T14:35:25;21.20;81.71
65291;SHT30;51893;59.754;10.110;2023-08-20T14:37:53;21.11;81.97
65291;SHT30;51893;59.754;10.110;2023-08-20T14:40:22;21.02;82.05
65291;SHT30;51893;59.754;10.110;2023-08-20T14:42:50;20.96;82.28
65291;SHT30;51893;59.754;10.110;2023-08-20T14:45:18;20.89;82.33
65291;SHT30;51893;59.754;10.110;2023-08-20T14:47:46;20.86;82.37
65291;SHT30;51893;59.754;10.110;2023-08-20T14:50:14;20.85;82.34
65291;SHT30;51893;59.754;10.110;2023-08-20T14:52:41;20.83;82.39
65291;SHT30;51893;59.754;10.110;2023-08-20T14:55:09;20.81;82.30
65291;SHT30;51893;59.754;10.110;2023-08-20T14:57:37;20.80;82.26
65291;SHT30;51893;59.754;10.110;2023-08-20T15:00:18;20.75;82.27
65291;SHT30;51893;59.754;10.110;2023-08-20T15:02:50;20.71;82.50
65291;SHT30;51893;59.754;10.110;2023-08-20T15:05:19;20.67;82.35
65291;SHT30;51893;59.754;10.110;2023-08-20T15:07:46;20.61;82.55
65291;SHT30;51893;59.754;10.110;2023-08-20T15:10:14;20.57;82.69
65291;SHT30;51893;59.754;10.110;2023-08-20T15:12:43;20.56;82.69
65291;SHT30;51893;59.754;10.110;2023-08-20T15:15:11;20.53;82.93
65291;SHT30;51893;59.754;10.110;2023-08-20T15:17:39;20.50;82.84
65291;SHT30;51893;59.754;10.110;2023-08-20T15:20:08;20.39;82.75
65291;SHT30;51893;59.754;10.110;2023-08-20T15:22:38;20.35;83.06
65291;SHT30;51893;59.754;10.110;2023-08-20T15:25:07;20.28;83.18
65291;SHT30;51893;59.754;10.110;2023-08-20T15:27:38;20.23;83.18
65291;SHT30;51893;59.754;10.110;2023-08-20T15:30:07;20.19;83.31
65291;SHT30;51893;59.754;10.110;2023-08-20T15:32:36;20.15;83.46
65291;SHT30;51893;59.754;10.110;2023-08-20T15:35:04;20.08;83.60
65291;SHT30;51893;59.754;10.110;2023-08-20T15:37:33;20.00;83.64
65291;SHT30;51893;59.754;10.110;2023-08-20T15:40:03;19.94;83.83
65291;SHT30;51893;59.754;10.110;2023-08-20T15:42:34;19.92;83.95